createdAt,value
2023-01-29T00:02:24.870Z,72.24
2023-01-29T00:04:53.735Z,72.22
2023-01-29T00:07:24.970Z,72.42
2023-01-29T00:09:53.105Z,72.11
2023-01-29T00:12:21.176Z,72.24
2023-01-29T00:14:48.983Z,72.22
2023-01-29T00:17:16.794Z,72.48
2023-01-29T00:19:44.545Z,72.52
2023-01-29T00:22:12.304Z,72.80
2023-01-29T00:24:40.099Z,72.75
2023-01-29T00:27:08.103Z,72.80
2023-01-29T00:29:35.838Z,72.54
2023-01-29T00:32:03.929Z,72.73
2023-01-29T00:34:31.937Z,72.70
2023-01-29T00:37:04.894Z,72.61
2023-01-29T00:39:47.357Z,72.36
2023-01-29T00:42:34.315Z,72.52
2023-01-29T00:45:02.189Z,72.63
2023-01-29T00:47:36.099Z,72.42
2023-01-29T00:50:09.772Z,72.24
2023-01-29T00:52:38.642Z,72.42
2023-01-29T00:55:07.651Z,72.54
2023-01-29T00:57:35.995Z,72.54
2023-01-29T01:00:06.327Z,72.83
2023-01-29T01:02:53.100Z,72.81
2023-01-29T01:05:21.142Z,72.84
2023-01-29T01:07:51.377Z,72.96
2023-01-29T01:10:39.551Z,72.97
2023-01-29T01:13:08.074Z,73.24
2023-01-29T01:15:38.229Z,73.59
2023-01-29T01:18:06.564Z,73.29
2023-01-29T01:20:36.421Z,73.33
2023-01-29T01:23:04.385Z,73.39
2023-01-29T01:25:32.284Z,73.45
2023-01-29T01:28:03.218Z,73.19
2023-01-29T01:30:31.113Z,73.15
2023-01-29T01:32:59.012Z,73.20
2023-01-29T01:35:26.911Z,73.10
2023-01-29T01:37:54.742Z,73.19
2023-01-29T01:40:24.819Z,73.27
2023-01-29T01:42:55.953Z,73.14
2023-01-29T01:45:31.286Z,73.11
2023-01-29T01:48:08.151Z,73.40
2023-01-29T01:50:47.663Z,73.22
2023-01-29T01:53:21.231Z,72.94
2023-01-29T01:55:52.384Z,72.90
2023-01-29T01:58:24.973Z,72.99
2023-01-29T02:00:52.786Z,73.05
2023-01-29T02:03:40.349Z,73.20
2023-01-29T02:06:27.517Z,73.30
2023-01-29T02:09:25.864Z,73.04
2023-01-29T02:11:53.874Z,73.04
2023-01-29T02:14:22.198Z,72.80
2023-01-29T02:16:50.013Z,72.76
2023-01-29T02:19:31.841Z,72.31
2023-01-29T02:22:05.734Z,72.31
2023-01-29T02:24:59.092Z,72.44
2023-01-29T02:27:49.368Z,72.16
2023-01-29T02:30:32.253Z,72.29
2023-01-29T02:33:09.761Z,72.17
2023-01-29T02:36:04.732Z,72.28
2023-01-29T02:39:14.692Z,72.32
2023-01-29T02:41:53.676Z,72.12
2023-01-29T02:44:34.651Z,72.11
2023-01-29T02:47:23.207Z,71.90
2023-01-29T02:50:00.223Z,71.79
2023-01-29T02:52:38.580Z,72.11
2023-01-29T02:55:18.530Z,72.05
2023-01-29T02:57:49.149Z,72.13
2023-01-29T03:00:26.883Z,72.15
2023-01-29T03:02:59.111Z,72.29
2023-01-29T03:05:43.641Z,72.00
2023-01-29T03:08:15.897Z,72.08
2023-01-29T03:11:03.328Z,72.25
2023-01-29T03:13:41.572Z,71.95
2023-01-29T03:16:19.244Z,72.24
2023-01-29T03:18:53.158Z,72.17
2023-01-29T03:21:48.639Z,71.92
2023-01-29T03:24:41.371Z,72.17
2023-01-29T03:27:29.383Z,71.75
2023-01-29T03:30:17.185Z,71.63
2023-01-29T03:32:46.889Z,71.36
2023-01-29T03:35:21.875Z,71.55
2023-01-29T03:37:49.667Z,71.73
2023-01-29T03:40:18.268Z,71.88
2023-01-29T03:43:12.265Z,71.46
2023-01-29T03:45:51.015Z,71.71
2023-01-29T03:48:58.510Z,71.69
2023-01-29T03:51:39.464Z,71.94
2023-01-29T03:54:13.266Z,71.80
2023-01-29T03:57:00.965Z,71.91
2023-01-29T03:59:39.136Z,71.38
2023-01-29T04:02:22.056Z,71.62
2023-01-29T04:04:52.489Z,71.67
2023-01-29T04:07:29.610Z,71.59
2023-01-29T04:10:05.899Z,71.48
2023-01-29T04:12:58.051Z,71.82
2023-01-29T04:15:29.082Z,72.05
2023-01-29T04:17:57.394Z,71.74
2023-01-29T04:20:25.211Z,71.75
2023-01-29T04:22:53.306Z,71.96
2023-01-29T04:25:26.683Z,71.78
2023-01-29T04:28:07.963Z,71.65
2023-01-29T04:31:00.321Z,71.71
2023-01-29T04:33:40.495Z,71.44
2023-01-29T04:36:08.389Z,71.47
2023-01-29T04:38:42.512Z,71.71
2023-01-29T04:42:04.458Z,71.78
2023-01-29T04:44:55.123Z,71.90
2023-01-29T04:47:45.227Z,71.79
2023-01-29T04:50:19.675Z,71.51
2023-01-29T04:52:53.403Z,71.68
2023-01-29T04:55:40.329Z,71.60
2023-01-29T04:58:14.559Z,71.47
2023-01-29T05:00:45.049Z,71.44
2023-01-29T05:03:15.257Z,71.86
2023-01-29T05:05:46.714Z,71.50
2023-01-29T05:08:17.237Z,71.95
2023-01-29T05:10:46.951Z,71.90
2023-01-29T05:13:15.314Z,72.19
2023-01-29T05:15:52.985Z,72.18
2023-01-29T05:18:20.888Z,71.73
2023-01-29T05:20:49.350Z,71.75
2023-01-29T05:23:18.788Z,71.92
2023-01-29T05:25:48.009Z,71.78
2023-01-29T05:28:18.953Z,71.63
2023-01-29T05:30:57.264Z,71.49
2023-01-29T05:33:31.702Z,71.30
2023-01-29T05:36:00.237Z,71.62
2023-01-29T05:38:28.026Z,71.18
2023-01-29T05:40:58.855Z,71.58
2023-01-29T05:43:27.178Z,71.62
2023-01-29T05:45:58.907Z,71.44
2023-01-29T05:48:29.115Z,71.48
2023-01-29T05:51:03.317Z,71.14
2023-01-29T05:53:31.683Z,71.40
2023-01-29T05:56:03.959Z,71.17
2023-01-29T05:58:32.677Z,71.24
2023-01-29T06:01:15.116Z,71.50
2023-01-29T06:03:43.341Z,71.26
2023-01-29T06:06:11.400Z,71.26
2023-01-29T06:08:39.235Z,71.54
2023-01-29T06:11:11.934Z,71.56
2023-01-29T06:13:40.600Z,71.37
2023-01-29T06:16:09.390Z,71.45
2023-01-29T06:18:37.599Z,71.57
2023-01-29T06:21:09.768Z,71.31
2023-01-29T06:23:37.942Z,71.36
2023-01-29T06:26:08.929Z,71.33
2023-01-29T06:28:36.988Z,71.25
2023-01-29T06:33:54.134Z,71.07
2023-01-29T06:36:21.866Z,70.89
2023-01-29T06:38:49.856Z,71.11
2023-01-29T06:41:19.475Z,71.18
2023-01-29T06:43:48.170Z,70.90
2023-01-29T06:46:15.934Z,71.34
2023-01-29T06:48:43.722Z,71.02
2023-01-29T06:51:11.927Z,71.18
2023-01-29T06:53:40.898Z,71.18
2023-01-29T06:56:09.063Z,71.25
2023-01-29T06:58:38.259Z,71.04
2023-01-29T07:01:11.701Z,70.92
2023-01-29T07:03:43.731Z,71.19
2023-01-29T07:06:11.799Z,71.30
2023-01-29T07:08:40.199Z,71.25
2023-01-29T07:11:08.372Z,71.18
2023-01-29T07:13:36.291Z,71.34
2023-01-29T07:16:05.846Z,71.36
2023-01-29T07:18:33.651Z,71.28
2023-01-29T07:21:07.639Z,71.50
2023-01-29T07:23:35.508Z,71.73
2023-01-29T07:26:05.338Z,71.13
2023-01-29T07:28:40.177Z,71.24
2023-01-29T07:31:08.919Z,70.97
2023-01-29T07:33:36.671Z,70.87
2023-01-29T07:36:08.633Z,70.96
2023-01-29T07:38:36.364Z,70.58
2023-01-29T07:41:04.430Z,70.64
2023-01-29T07:43:32.362Z,70.95
2023-01-29T07:46:04.531Z,70.92
2023-01-29T07:48:32.630Z,70.92
2023-01-29T07:51:00.476Z,70.75
2023-01-29T07:53:28.832Z,70.77
2023-01-29T07:55:56.933Z,70.54
2023-01-29T07:58:24.685Z,70.49
2023-01-29T08:00:52.440Z,70.92
2023-01-29T08:03:20.814Z,71.38
2023-01-29T08:05:48.692Z,70.75
2023-01-29T08:08:16.549Z,71.19
2023-01-29T08:10:44.399Z,71.04
2023-01-29T08:13:12.270Z,71.10
2023-01-29T08:15:45.860Z,71.24
2023-01-29T08:18:14.729Z,71.32
2023-01-29T08:20:42.700Z,71.30
2023-01-29T08:23:14.178Z,71.36
2023-01-29T08:25:42.320Z,71.42
2023-01-29T08:28:11.882Z,71.51
2023-01-29T08:30:39.983Z,71.53
2023-01-29T08:33:07.788Z,71.27
2023-01-29T08:35:36.345Z,71.39
2023-01-29T08:38:05.284Z,70.91
2023-01-29T08:40:34.558Z,71.16
2023-01-29T08:43:08.673Z,70.83
2023-01-29T08:45:39.212Z,71.23
2023-01-29T08:48:07.277Z,71.02
2023-01-29T08:50:36.162Z,71.48
2023-01-29T08:53:07.819Z,71.42
2023-01-29T08:55:40.465Z,71.18
2023-01-29T08:58:11.008Z,71.28
2023-01-29T09:00:39.013Z,71.28
2023-01-29T09:03:08.032Z,71.23
2023-01-29T09:05:37.495Z,71.19
2023-01-29T09:08:05.924Z,71.28
2023-01-29T09:10:34.018Z,71.11
2023-01-29T09:13:01.840Z,71.37
2023-01-29T09:15:29.975Z,71.29
2023-01-29T09:17:57.731Z,71.56
2023-01-29T09:20:25.592Z,71.42
2023-01-29T09:22:56.040Z,71.82
2023-01-29T09:25:23.845Z,71.56
2023-01-29T09:27:51.573Z,71.55
2023-01-29T09:30:19.594Z,71.49
2023-01-29T09:32:53.556Z,71.40
2023-01-29T09:35:23.462Z,71.19
2023-01-29T09:37:51.959Z,71.17
2023-01-29T09:40:38.451Z,71.16
2023-01-29T09:43:21.923Z,71.16
2023-01-29T09:46:04.469Z,71.31
2023-01-29T09:48:34.068Z,71.54
2023-01-29T09:51:06.791Z,71.39
2023-01-29T09:53:41.339Z,71.55
2023-01-29T09:56:15.020Z,71.21
2023-01-29T09:58:43.933Z,71.67
2023-01-29T10:01:28.337Z,71.09
2023-01-29T10:04:21.240Z,71.56
2023-01-29T10:07:13.530Z,71.27
2023-01-29T10:09:47.761Z,71.48
2023-01-29T10:12:52.965Z,71.38
2023-01-29T10:15:32.042Z,71.70
2023-01-29T10:18:24.507Z,71.90
2023-01-29T10:21:30.049Z,71.44
2023-01-29T10:24:24.481Z,71.64
2023-01-29T10:26:52.987Z,71.54
2023-01-29T10:29:22.202Z,71.68
2023-01-29T10:31:54.235Z,71.57
2023-01-29T10:34:33.648Z,71.46
2023-01-29T10:37:02.108Z,71.20
2023-01-29T10:39:30.807Z,71.30
2023-01-29T10:42:30.097Z,71.25
2023-01-29T10:45:15.674Z,71.10
2023-01-29T10:47:46.866Z,71.34
2023-01-29T10:50:37.941Z,71.26
2023-01-29T10:53:17.755Z,71.05
2023-01-29T10:56:20.930Z,71.27
2023-01-29T10:58:53.645Z,71.46
2023-01-29T11:01:21.824Z,71.68
2023-01-29T11:04:01.792Z,71.63
2023-01-29T11:06:32.380Z,71.65
2023-01-29T11:09:21.495Z,71.44
2023-01-29T11:12:05.990Z,71.89
2023-01-29T11:14:43.004Z,71.78
2023-01-29T11:17:18.300Z,71.89
2023-01-29T11:19:48.230Z,71.85
2023-01-29T11:22:21.222Z,72.28
2023-01-29T11:25:19.230Z,72.26
2023-01-29T11:27:53.390Z,71.77
2023-01-29T11:30:26.330Z,71.85
2023-01-29T11:33:20.189Z,71.71
2023-01-29T11:35:48.093Z,71.60
2023-01-29T11:38:16.001Z,71.81
2023-01-29T11:40:44.910Z,71.88
2023-01-29T11:43:27.771Z,71.92
2023-01-29T11:45:58.868Z,72.00
2023-01-29T11:48:59.034Z,72.32
2023-01-29T11:51:30.272Z,72.47
2023-01-29T11:54:01.902Z,72.33
2023-01-29T11:56:34.329Z,72.35
2023-01-29T11:59:04.765Z,72.65
2023-01-29T12:01:37.193Z,72.75
2023-01-29T12:04:18.424Z,73.06
2023-01-29T12:06:50.496Z,72.90
2023-01-29T12:09:29.417Z,73.05
2023-01-29T12:11:59.172Z,73.04
2023-01-29T12:14:33.399Z,73.17
2023-01-29T12:17:14.056Z,73.19
2023-01-29T12:19:49.888Z,73.20
2023-01-29T12:22:22.657Z,73.29
2023-01-29T12:25:09.814Z,73.33
2023-01-29T12:27:49.737Z,73.61
2023-01-29T12:30:22.780Z,73.87
2023-01-29T12:32:59.787Z,73.75
2023-01-29T12:35:38.743Z,73.86
2023-01-29T12:38:19.414Z,74.00
2023-01-29T12:40:47.714Z,74.17
2023-01-29T12:43:22.795Z,74.17
2023-01-29T12:45:53.108Z,74.10
2023-01-29T12:48:33.358Z,73.99
2023-01-29T12:51:08.024Z,73.98
2023-01-29T12:53:40.588Z,73.67
2023-01-29T12:56:16.897Z,73.53
2023-01-29T12:58:48.061Z,73.73
2023-01-29T13:01:41.751Z,73.56
2023-01-29T13:04:26.309Z,73.53
2023-01-29T13:06:59.394Z,73.45
2023-01-29T13:09:29.080Z,73.57
2023-01-29T13:12:01.262Z,73.63
2023-01-29T13:14:40.058Z,73.53
2023-01-29T13:17:13.201Z,73.43
2023-01-29T13:19:43.429Z,73.53
2023-01-29T13:22:18.670Z,73.64
2023-01-29T13:24:58.778Z,73.72
2023-01-29T13:27:33.902Z,73.79
2023-01-29T13:30:02.048Z,73.71
2023-01-29T13:32:32.038Z,73.58
2023-01-29T13:35:05.329Z,73.37
2023-01-29T13:37:50.511Z,73.39
2023-01-29T13:40:27.598Z,73.43
2023-01-29T13:42:57.867Z,73.26
2023-01-29T13:45:43.371Z,73.33
2023-01-29T13:48:23.257Z,73.42
2023-01-29T13:50:51.691Z,73.47
2023-01-29T13:53:29.608Z,73.51
2023-01-29T13:56:32.679Z,73.79
2023-01-29T13:59:02.487Z,73.47
2023-01-29T14:01:48.822Z,73.74
2023-01-29T14:04:21.704Z,73.93
2023-01-29T14:06:54.755Z,74.14
2023-01-29T14:09:32.608Z,74.01
2023-01-29T14:12:00.610Z,73.93
2023-01-29T14:14:51.989Z,73.90
2023-01-29T14:17:20.531Z,73.76
2023-01-29T14:20:01.936Z,73.92
2023-01-29T14:22:31.674Z,73.73
2023-01-29T14:25:04.040Z,73.71
2023-01-29T14:27:32.355Z,73.89
2023-01-29T14:30:10.000Z,73.83
2023-01-29T14:32:39.661Z,73.82
2023-01-29T14:35:20.233Z,73.98
2023-01-29T14:37:51.239Z,74.09
2023-01-29T14:40:18.985Z,74.17
2023-01-29T14:43:21.764Z,74.25
2023-01-29T14:45:50.474Z,74.33
2023-01-29T14:48:39.414Z,74.59
2023-01-29T14:51:10.896Z,74.89
2023-01-29T14:54:06.194Z,75.21
2023-01-29T14:56:37.159Z,75.31
2023-01-29T14:59:12.835Z,75.50
2023-01-29T15:01:47.507Z,75.49
2023-01-29T15:04:19.290Z,75.65
2023-01-29T15:06:50.817Z,75.60
2023-01-29T15:10:22.290Z,75.71
2023-01-29T15:13:14.488Z,75.60
2023-01-29T15:16:06.773Z,75.62
2023-01-29T15:18:42.305Z,75.66
2023-01-29T15:21:15.448Z,75.67
2023-01-29T15:23:44.780Z,75.43
2023-01-29T15:26:18.832Z,75.41
2023-01-29T15:29:02.160Z,75.50
2023-01-29T15:31:32.421Z,75.49
2023-01-29T15:34:06.643Z,75.66
2023-01-29T15:36:36.846Z,75.70
2023-01-29T15:39:19.877Z,75.65
2023-01-29T15:41:47.922Z,75.79
2023-01-29T15:44:18.896Z,75.87
2023-01-29T15:46:55.973Z,76.09
2023-01-29T15:49:32.204Z,76.14
2023-01-29T15:52:04.726Z,75.98
2023-01-29T15:54:34.866Z,75.98
2023-01-29T15:57:03.710Z,75.95
2023-01-29T15:59:35.009Z,75.79
2023-01-29T16:02:26.598Z,76.01
2023-01-29T16:04:55.307Z,75.84
2023-01-29T16:07:23.424Z,75.98
2023-01-29T16:09:51.961Z,76.04
2023-01-29T16:12:20.216Z,76.19
2023-01-29T16:14:49.946Z,76.02
2023-01-29T16:17:40.868Z,75.93
2023-01-29T16:20:49.697Z,76.06
2023-01-29T16:23:21.860Z,75.97
2023-01-29T16:25:50.111Z,75.99
2023-01-29T16:28:18.257Z,75.86
2023-01-29T16:30:49.709Z,75.86
2023-01-29T16:33:17.718Z,76.00
2023-01-29T16:35:51.364Z,76.08
2023-01-29T16:38:37.611Z,76.03
2023-01-29T16:41:38.752Z,76.08
2023-01-29T16:44:15.931Z,76.11
2023-01-29T16:46:48.458Z,76.22
2023-01-29T16:49:28.611Z,76.03
2023-01-29T16:51:57.081Z,76.13
2023-01-29T16:54:26.043Z,76.00
2023-01-29T16:56:56.409Z,75.82
2023-01-29T16:59:32.833Z,75.93
2023-01-29T17:02:01.037Z,76.02
2023-01-29T17:04:28.899Z,75.87
2023-01-29T17:06:59.631Z,76.01
2023-01-29T17:09:30.456Z,75.97
2023-01-29T17:12:04.935Z,76.09
2023-01-29T17:14:33.984Z,76.18
2023-01-29T17:17:05.261Z,76.07
2023-01-29T17:19:33.539Z,76.10
2023-01-29T17:22:04.775Z,76.02
2023-01-29T17:24:35.315Z,75.95
2023-01-29T17:27:03.230Z,75.96
2023-01-29T17:29:31.694Z,75.86
2023-01-29T17:32:02.095Z,75.76
2023-01-29T17:34:29.943Z,75.77
2023-01-29T17:36:57.686Z,75.65
2023-01-29T17:39:25.854Z,75.64
2023-01-29T17:41:55.766Z,75.82
2023-01-29T17:44:26.311Z,75.75
2023-01-29T17:46:54.452Z,75.77
2023-01-29T17:49:27.664Z,75.74
2023-01-29T17:51:57.010Z,75.69
2023-01-29T17:54:25.961Z,75.87
2023-01-29T17:56:53.984Z,75.68
2023-01-29T17:59:24.264Z,75.52
2023-01-29T18:01:52.287Z,75.54
2023-01-29T18:04:20.392Z,75.56
2023-01-29T18:06:50.049Z,75.81
2023-01-29T18:09:20.723Z,75.72
2023-01-29T18:11:49.431Z,75.76
2023-01-29T18:14:17.691Z,75.87
2023-01-29T18:16:46.190Z,75.92
2023-01-29T18:19:23.136Z,76.13
2023-01-29T18:21:51.116Z,76.05
2023-01-29T18:24:20.740Z,76.09
2023-01-29T18:26:49.799Z,76.16
2023-01-29T18:29:18.320Z,76.13
2023-01-29T18:31:49.449Z,75.98
2023-01-29T18:34:17.584Z,76.04
2023-01-29T18:36:47.977Z,75.87
2023-01-29T18:39:16.434Z,75.98
2023-01-29T18:41:44.539Z,75.93
2023-01-29T18:44:12.794Z,76.04
2023-01-29T18:46:40.663Z,76.03
2023-01-29T18:49:08.914Z,76.15
2023-01-29T18:51:37.001Z,76.01
2023-01-29T18:54:06.083Z,76.07
2023-01-29T18:56:34.101Z,76.13
2023-01-29T18:59:03.423Z,75.93
2023-01-29T19:01:33.382Z,75.89
2023-01-29T19:04:01.950Z,75.85
2023-01-29T19:06:30.319Z,75.85
2023-01-29T19:08:58.203Z,75.87
2023-01-29T19:11:26.149Z,76.01
2023-01-29T19:13:55.083Z,76.06
2023-01-29T19:16:22.933Z,76.01
2023-01-29T19:18:53.248Z,76.00
2023-01-29T19:21:22.408Z,76.08
2023-01-29T19:23:52.890Z,76.17
2023-01-29T19:26:20.813Z,76.17
2023-01-29T19:28:48.863Z,76.19
2023-01-29T19:31:16.625Z,76.25
2023-01-29T19:33:44.721Z,76.14
2023-01-29T19:36:13.640Z,76.00
2023-01-29T19:38:41.637Z,76.03
2023-01-29T19:41:09.752Z,75.89
2023-01-29T19:43:40.771Z,75.93
2023-01-29T19:46:10.450Z,75.84
2023-01-29T19:48:38.536Z,75.91
2023-01-29T19:51:09.188Z,75.72
2023-01-29T19:53:38.133Z,75.76
2023-01-29T19:56:08.652Z,75.78
2023-01-29T19:58:37.040Z,75.67
2023-01-29T20:01:29.491Z,75.51
2023-01-29T20:03:57.735Z,75.67
2023-01-29T20:06:28.079Z,75.80
2023-01-29T20:08:56.105Z,75.66
2023-01-29T20:11:25.123Z,75.49
2023-01-29T20:13:53.898Z,75.44
2023-01-29T20:16:22.164Z,75.20
2023-01-29T20:18:50.218Z,75.15
2023-01-29T20:21:20.829Z,75.18
2023-01-29T20:23:50.280Z,75.06
2023-01-29T20:26:19.539Z,75.06
2023-01-29T20:28:48.065Z,75.10
2023-01-29T20:31:16.585Z,75.05
2023-01-29T20:33:45.062Z,75.24
2023-01-29T20:36:14.854Z,75.10
2023-01-29T20:38:42.949Z,75.07
2023-01-29T20:41:19.475Z,75.26
2023-01-29T20:43:50.205Z,75.09
2023-01-29T20:46:18.615Z,74.89
2023-01-29T20:48:47.333Z,74.99
2023-01-29T20:51:17.913Z,75.31
2023-01-29T20:53:46.878Z,74.86
2023-01-29T20:56:16.648Z,74.78
2023-01-29T20:58:45.179Z,74.82
2023-01-29T21:01:17.282Z,74.72
2023-01-29T21:03:46.566Z,74.50
2023-01-29T21:06:15.109Z,74.60
2023-01-29T21:08:43.171Z,74.58
2023-01-29T21:11:11.254Z,74.52
2023-01-29T21:13:39.300Z,74.40
2023-01-29T21:16:07.361Z,74.29
2023-01-29T21:18:35.295Z,74.35
2023-01-29T21:21:06.162Z,74.44
2023-01-29T21:23:34.202Z,74.58
2023-01-29T21:26:04.340Z,74.56
2023-01-29T21:28:32.691Z,74.45
2023-01-29T21:31:08.439Z,74.29
2023-01-29T21:33:37.048Z,74.46
2023-01-29T21:36:05.663Z,74.49
2023-01-29T21:38:35.170Z,74.46
2023-01-29T21:41:04.859Z,74.45
2023-01-29T21:43:32.807Z,74.45
2023-01-29T21:46:05.093Z,74.19
2023-01-29T21:48:33.059Z,74.50
2023-01-29T21:51:01.091Z,74.21
2023-01-29T21:53:28.975Z,74.22
2023-01-29T21:56:01.550Z,74.28
2023-01-29T21:58:30.029Z,74.24
2023-01-29T22:01:36.976Z,74.06
2023-01-29T22:03:47.360Z,74.23
2023-01-29T22:06:15.673Z,74.21
2023-01-29T22:08:44.184Z,74.32
2023-01-29T22:11:12.326Z,74.24
2023-01-29T22:13:40.536Z,74.34
2023-01-29T22:16:08.478Z,74.45
2023-01-29T22:18:36.251Z,74.38
2023-01-29T22:21:04.160Z,74.26
2023-01-29T22:23:32.383Z,74.24
2023-01-29T22:26:04.492Z,74.19
2023-01-29T22:28:32.793Z,73.86
2023-01-29T22:31:04.733Z,73.98
2023-01-29T22:33:33.573Z,73.79
2023-01-29T22:36:01.491Z,73.73
2023-01-29T22:38:29.573Z,73.65
2023-01-29T22:40:59.659Z,73.76
2023-01-29T22:43:27.534Z,73.78
2023-01-29T22:45:56.660Z,73.66
2023-01-29T22:48:24.714Z,73.66
2023-01-29T22:51:09.517Z,73.50
2023-01-29T22:53:41.499Z,73.66
2023-01-29T22:56:10.607Z,73.60
2023-01-29T22:58:38.417Z,73.29
2023-01-29T23:01:06.234Z,73.49
2023-01-29T23:03:34.543Z,73.44
2023-01-29T23:06:03.837Z,73.40
2023-01-29T23:08:33.487Z,73.52
2023-01-29T23:11:14.073Z,73.79
2023-01-29T23:13:43.114Z,73.30
2023-01-29T23:16:11.628Z,73.25
2023-01-29T23:18:39.527Z,73.17
2023-01-29T23:21:07.676Z,73.32
2023-01-29T23:23:36.507Z,72.97
2023-01-29T23:26:24.929Z,72.49
2023-01-29T23:28:52.807Z,72.93
2023-01-29T23:31:20.735Z,72.48
2023-01-29T23:33:49.422Z,72.59
2023-01-29T23:36:17.348Z,72.68
2023-01-29T23:38:45.122Z,72.58
2023-01-29T23:41:13.032Z,72.57
2023-01-29T23:43:40.934Z,72.49
2023-01-29T23:46:08.758Z,72.40
2023-01-29T23:48:36.640Z,72.48
2023-01-29T23:51:04.487Z,72.58
2023-01-29T23:53:34.759Z,72.28
2023-01-29T23:56:04.251Z,72.15
2023-01-29T23:58:32.585Z,72.33
